KOPF/OPF METAR and TAF weather

Enter ICAO airport designator
Station Type Date Time Source
KOPF METAR 2019/05/19 17:53 UTC NOAA

KOPF 191753Z 11008G16KT 10SM CLR 31/19 A3002 RMK AO2 SLP167 T03110189 10317 20239 58002


Station Type Date Time Source
KOPF Decoded METAR 2019/05/19 17:53 UTC NOAA

MIAMI OPA LOCKA AIRPORT, FL, United States (KOPF) 25-54N 80-17W 16M
May 19, 2019 - 01:53 PM EDT / 2019.05.19 1753 UTC
Wind: from the ESE (110 degrees) at 9 MPH (8 KT) gusting to 18 MPH (16 KT):0
Visibility: 10 mile(s):0
Sky conditions: clear
Temperature: 88.0 F (31.1 C)
Dew Point: 66.0 F (18.9 C)
Relative Humidity: 48%
Pressure (altimeter): 30.02 in. Hg (1016 hPa)
Pressure tendency: 0.01 inches (0.2 hPa) lower than three hours ago
ob: KOPF 191753Z 11008G16KT 10SM CLR 31/19 A3002 RMK AO2 SLP167 T03110189 10317 20239 58002
cycle: 18

Station Type Date Time Source
KOPF TAF 2019/05/19 18:22 UTC NOAA

TAF KOPF 191720Z 1918/2018 10013KT P6SM SCT030
FM200300 10004KT P6SM FEW030
FM201400 09010KT P6SM SCT035

Example: see airport list